Time;durP1;ratioP1;P1;durP2;ratioP2;P2;SDS_P1;SDS_P2;PMS_P1;PMS_P2;Temp;Humidity;BMP_temperature;BMP_pressure;BME280_temperature;BME280_humidity;BME280_pressure;Samples;Min_cycle;Max_cycle;Signal;HPM_P1;HPM_P2
2022/07/27 00:01:55;;;;;;;11.17;3.87;;;;;;;16.46;63.79;101323.44;5043051;28;20524;-71
2022/07/27 00:04:21;;;;;;;5.90;3.30;;;;;;;16.63;63.65;101319.84;5039689;28;21572;-70
2022/07/27 00:06:46;;;;;;;4.97;2.93;;;;;;;16.39;63.96;101323.50;5039500;28;20212;-70
2022/07/27 00:09:12;;;;;;;4.97;3.20;;;;;;;16.45;63.44;101326.97;5039350;28;20891;-67
2022/07/27 00:11:37;;;;;;;5.63;3.10;;;;;;;16.49;62.45;101326.06;5049785;28;20177;-67
2022/07/27 00:14:03;;;;;;;7.53;3.40;;;;;;;16.39;62.27;101320.88;5058972;28;20481;-68
2022/07/27 00:16:28;;;;;;;7.97;3.50;;;;;;;16.74;61.29;101328.53;5059245;28;20279;-66
2022/07/27 00:18:54;;;;;;;4.70;2.90;;;;;;;17.10;60.41;101316.03;5058099;28;20201;-67
2022/07/27 00:21:19;;;;;;;5.10;3.10;;;;;;;17.02;60.00;101320.47;5040484;28;20458;-69
2022/07/27 00:23:44;;;;;;;6.20;3.20;;;;;;;16.86;59.72;101318.81;5039183;28;20189;-66
2022/07/27 00:26:10;;;;;;;5.03;3.10;;;;;;;16.86;59.75;101305.63;5039707;28;20224;-67
2022/07/27 00:28:35;;;;;;;6.00;2.90;;;;;;;17.04;59.73;101304.69;5039144;28;20172;-67
2022/07/27 00:31:00;;;;;;;4.90;3.20;;;;;;;16.53;60.02;101307.63;5048163;28;20745;-67
2022/07/27 00:33:26;;;;;;;15.33;4.43;;;;;;;17.03;58.53;101303.78;5059188;28;20245;-68
2022/07/27 00:35:51;;;;;;;3.80;3.03;;;;;;;17.24;57.62;101304.47;5059299;28;20173;-67
2022/07/27 00:38:16;;;;;;;4.37;2.87;;;;;;;17.00;58.21;101312.56;5058566;28;20166;-69
2022/07/27 00:40:42;;;;;;;3.80;2.70;;;;;;;17.07;57.65;101310.78;5052463;28;20272;-70
2022/07/27 00:43:07;;;;;;;5.50;2.80;;;;;;;17.39;56.87;101317.53;5045840;28;20550;-71
2022/07/27 00:45:33;;;;;;;4.63;2.83;;;;;;;17.30;56.94;101314.97;5057630;28;20241;-67
2022/07/27 00:47:58;;;;;;;9.13;2.90;;;;;;;17.40;56.40;101314.00;5053674;28;20189;-68
2022/07/27 00:50:24;;;;;;;3.93;2.77;;;;;;;17.37;56.41;101321.06;5046812;28;20256;-67
2022/07/27 00:52:50;;;;;;;4.70;2.73;;;;;;;17.12;56.69;101318.66;5041303;28;20552;-67
2022/07/27 00:55:15;;;;;;;4.87;2.67;;;;;;;16.97;57.88;101324.91;5058858;28;20210;-67
2022/07/27 00:57:41;;;;;;;8.87;2.67;;;;;;;16.95;58.10;101322.31;5058058;28;20837;-67
2022/07/27 01:00:07;;;;;;;5.03;2.77;;;;;;;17.23;57.84;101316.78;5038391;28;20454;-67
2022/07/27 01:02:32;;;;;;;5.37;3.20;;;;;;;16.90;58.48;101328.47;5056233;28;20188;-66
2022/07/27 01:04:58;;;;;;;6.67;3.10;;;;;;;17.22;58.32;101315.03;5049472;28;20821;-67
2022/07/27 01:07:23;;;;;;;6.07;3.30;;;;;;;17.19;58.74;101314.22;5038533;28;20166;-66
2022/07/27 01:09:58;;;;;;;5.73;2.90;;;;;;;17.19;59.00;101316.84;5040376;28;20205;-66
2022/07/27 01:12:26;;;;;;;7.80;3.43;;;;;;;17.05;59.41;101312.56;5038330;28;20238;-67
2022/07/27 01:14:51;;;;;;;3.93;2.90;;;;;;;16.84;59.07;101317.09;5038362;28;20908;-67
2022/07/27 01:17:17;;;;;;;5.50;3.07;;;;;;;17.20;58.34;101313.31;5038418;28;20466;-67
2022/07/27 01:19:43;;;;;;;3.90;2.77;;;;;;;17.19;58.04;101314.22;5047946;28;20463;-68
2022/07/27 01:22:09;;;;;;;7.93;2.60;;;;;;;17.29;57.54;101315.84;5053092;28;20170;-68
2022/07/27 01:24:35;;;;;;;6.17;2.67;;;;;;;17.17;57.97;101312.44;5038164;28;20422;-67
2022/07/27 01:27:01;;;;;;;7.53;2.90;;;;;;;17.17;58.14;101309.81;5038163;28;20417;-67
2022/07/27 01:29:26;;;;;;;4.33;2.50;;;;;;;17.27;57.21;101315.00;5038417;28;20528;-68
2022/07/27 01:31:52;;;;;;;7.27;3.37;;;;;;;16.87;58.18;101317.94;5039602;28;20166;-67
2022/07/27 01:34:17;;;;;;;3.43;2.67;;;;;;;17.35;56.68;101305.28;5057760;28;20531;-67
2022/07/27 01:36:44;;;;;;;6.27;3.03;;;;;;;17.14;58.60;101311.59;5058417;28;20162;-68
2022/07/27 01:39:10;;;;;;;6.77;3.03;;;;;;;17.17;58.50;101320.34;5057634;28;20590;-70
2022/07/27 01:41:36;;;;;;;5.60;3.10;;;;;;;16.67;60.57;101326.84;5057949;28;20425;-68
2022/07/27 01:44:01;;;;;;;3.87;2.80;;;;;;;16.83;60.72;101324.97;5047029;28;20396;-69
2022/07/27 01:46:26;;;;;;;3.97;3.00;;;;;;;16.62;61.73;101320.72;5037751;28;20166;-71
2022/07/27 01:48:52;;;;;;;8.40;3.57;;;;;;;16.72;61.40;101314.50;5037670;28;20177;-69
2022/07/27 01:51:17;;;;;;;4.80;2.63;;;;;;;16.81;61.21;101314.44;5037510;28;20532;-70
2022/07/27 01:53:42;;;;;;;7.53;3.50;;;;;;;16.87;60.89;101302.13;5050993;28;20221;-67
2022/07/27 01:56:09;;;;;;;6.40;2.80;;;;;;;16.81;60.93;101300.41;5057809;28;20166;-67
2022/07/27 01:58:36;;;;;;;6.53;2.80;;;;;;;16.67;61.67;101292.63;5057957;28;20201;-66
2022/07/27 02:01:01;;;;;;;6.40;3.00;;;;;;;16.68;61.42;101296.97;5057456;28;20410;-67
2022/07/27 02:03:27;;;;;;;5.57;2.90;;;;;;;16.42;62.14;101300.66;5047189;28;20437;-67
2022/07/27 02:05:52;;;;;;;6.50;3.43;;;;;;;16.53;62.41;101308.47;5038021;28;20251;-65
2022/07/27 02:08:17;;;;;;;3.63;2.67;;;;;;;16.65;62.10;101297.00;5037609;28;20213;-66
2022/07/27 02:13:27;;;;;;;6.13;2.90;;;;;;;16.47;62.50;101301.50;5047543;28;20600;-68
2022/07/27 02:15:52;;;;;;;5.33;3.30;;;;;;;16.81;62.06;101295.16;5057138;28;20406;-68
2022/07/27 02:18:18;;;;;;;7.67;3.50;;;;;;;16.78;62.04;101298.69;5057116;28;20182;-68
2022/07/27 02:20:43;;;;;;;5.90;3.43;;;;;;;16.90;62.25;101292.50;5058027;28;20244;-69
2022/07/27 02:23:08;;;;;;;11.07;3.90;;;;;;;16.97;62.03;101291.53;5055549;28;20178;-69
2022/07/27 02:25:34;;;;;;;4.93;2.90;;;;;;;16.90;62.31;101291.59;5056946;28;20539;-66
2022/07/27 02:28:01;;;;;;;11.20;2.90;;;;;;;16.78;61.75;101305.72;5057780;28;20158;-67
2022/07/27 02:30:26;;;;;;;6.43;3.40;;;;;;;16.73;62.39;101300.47;5057462;28;20649;-67
2022/07/27 02:32:51;;;;;;;5.17;3.17;;;;;;;16.43;63.11;101307.66;5052648;28;20419;-66
2022/07/27 02:35:17;;;;;;;5.53;3.03;;;;;;;15.90;64.61;101307.03;5041323;28;20189;-67
2022/07/27 02:37:42;;;;;;;4.70;2.90;;;;;;;16.26;63.89;101305.13;5041153;28;20186;-67
2022/07/27 02:40:08;;;;;;;5.60;3.10;;;;;;;16.11;63.86;101308.69;5040995;28;20289;-68
2022/07/27 02:42:33;;;;;;;4.47;3.00;;;;;;;16.19;63.93;101307.81;5042632;28;20166;-67
2022/07/27 02:44:59;;;;;;;6.73;4.03;;;;;;;15.95;64.42;101315.78;5060163;28;20499;-68
2022/07/27 02:47:24;;;;;;;6.93;3.83;;;;;;;16.10;63.87;101303.44;5059995;28;20182;-67
2022/07/27 02:49:50;;;;;;;6.53;3.22;;;;;;;15.82;64.43;101312.31;5062566;28;20408;-67
2022/07/27 02:52:15;;;;;;;5.27;2.87;;;;;;;15.92;64.46;101315.78;5062157;28;20170;-68
2022/07/27 02:54:40;;;;;;;5.47;2.90;;;;;;;16.06;63.61;101313.13;5041467;28;20331;-67
2022/07/27 02:57:06;;;;;;;4.80;3.20;;;;;;;15.92;64.14;101321.03;5041367;28;20201;-69
2022/07/27 02:59:31;;;;;;;8.70;3.40;;;;;;;16.02;64.01;101307.84;5041949;28;20201;-67
2022/07/27 03:01:58;;;;;;;5.80;3.20;;;;;;;15.94;64.10;101307.88;5059530;28;20197;-68
2022/07/27 03:04:24;;;;;;;4.70;3.20;;;;;;;16.15;63.87;101301.66;5044326;28;20427;-69
2022/07/27 03:06:49;;;;;;;6.07;3.50;;;;;;;16.29;63.46;101306.84;5039937;28;20177;-70
2022/07/27 03:09:15;;;;;;;8.73;3.77;;;;;;;16.26;63.41;101302.47;5041443;28;20225;-68
2022/07/27 03:11:40;;;;;;;6.17;3.30;;;;;;;16.20;63.82;101306.94;5041084;28;20182;-69
2022/07/27 03:14:05;;;;;;;7.83;3.67;;;;;;;16.28;63.63;101305.13;5053617;28;20443;-69
2022/07/27 03:16:31;;;;;;;4.70;3.07;;;;;;;16.05;64.17;101300.84;5060173;28;20185;-68
2022/07/27 03:18:56;;;;;;;6.07;3.33;;;;;;;16.08;64.21;101306.09;5060610;28;20204;-70
2022/07/27 03:21:22;;;;;;;5.17;3.20;;;;;;;15.77;65.06;101306.16;5060688;28;20226;-69
2022/07/27 03:23:48;;;;;;;4.67;3.30;;;;;;;16.06;64.40;101307.84;5049403;28;20194;-69
2022/07/27 03:26:13;;;;;;;3.50;3.03;;;;;;;15.90;64.45;101314.03;5053571;28;20181;-69
2022/07/27 03:28:38;;;;;;;6.10;3.13;;;;;;;15.87;64.85;101314.06;5059931;28;20188;-70
2022/07/27 03:31:04;;;;;;;6.23;3.60;;;;;;;16.05;63.95;101313.09;5060265;28;20549;-69
2022/07/27 03:33:29;;;;;;;7.27;3.37;;;;;;;15.87;64.75;101317.56;5059409;28;20561;-69
2022/07/27 03:35:54;;;;;;;8.30;3.20;;;;;;;15.71;65.42;101321.06;5045720;28;20189;-69
2022/07/27 03:38:21;;;;;;;5.83;3.67;;;;;;;15.88;65.28;101323.69;5039888;28;20471;-70
2022/07/27 03:40:47;;;;;;;8.00;4.30;;;;;;;15.95;64.87;101325.41;5049603;28;20238;-68
2022/07/27 03:43:12;;;;;;;7.87;3.37;;;;;;;15.92;64.73;101323.66;5059317;28;20791;-69
2022/07/27 03:45:38;;;;;;;4.90;3.40;;;;;;;16.06;64.32;101321.00;5059430;28;20173;-70
2022/07/27 03:48:03;;;;;;;5.57;3.30;;;;;;;16.00;64.56;101328.91;5060188;28;20169;-69
2022/07/27 03:50:29;;;;;;;5.27;3.40;;;;;;;15.76;65.17;101319.31;5048816;28;20181;-69
2022/07/27 03:52:55;;;;;;;6.73;3.50;;;;;;;15.82;64.98;101319.34;5041396;28;20245;-69
2022/07/27 03:55:20;;;;;;;4.80;3.40;;;;;;;16.23;64.20;101317.44;5059638;28;20227;-69
2022/07/27 03:57:46;;;;;;;4.50;3.47;;;;;;;16.21;63.78;101312.19;5059840;28;20655;-69
2022/07/27 04:00:12;;;;;;;3.97;3.20;;;;;;;16.28;63.48;101318.28;5059651;28;20205;-69
2022/07/27 04:02:41;;;;;;;7.80;3.40;;;;;;;16.46;63.07;101312.91;5059465;28;20173;-69
2022/07/27 04:05:07;;;;;;;7.53;3.40;;;;;;;16.37;63.48;101312.09;5039959;28;20691;-70
2022/07/27 04:07:33;;;;;;;6.60;3.87;;;;;;;16.10;63.99;101309.59;5038640;28;20460;-68
2022/07/27 04:09:58;;;;;;;9.97;3.60;;;;;;;15.93;64.33;101314.91;5040908;28;20427;-68
2022/07/27 04:12:23;;;;;;;9.23;3.43;;;;;;;16.46;63.35;101318.16;5046046;28;20185;-69
2022/07/27 04:14:49;;;;;;;4.33;2.70;;;;;;;16.61;62.56;101316.34;5042710;28;20193;-69
2022/07/27 04:17:14;;;;;;;6.33;3.00;;;;;;;16.37;63.27;101317.34;5039706;28;20518;-68
2022/07/27 04:19:40;;;;;;;8.37;4.00;;;;;;;15.91;64.40;101321.94;5042930;28;20193;-68
2022/07/27 04:22:05;;;;;;;4.87;2.87;;;;;;;15.75;64.56;101323.69;5059368;28;20311;-68
2022/07/27 04:24:30;;;;;;;6.33;3.27;;;;;;;16.12;63.48;101328.00;5048174;28;20174;-68
2022/07/27 04:26:56;;;;;;;4.50;2.93;;;;;;;15.98;63.96;101325.44;5059506;28;20197;-68
2022/07/27 04:29:21;;;;;;;6.63;3.03;;;;;;;16.05;63.72;101329.78;5057323;28;20182;-68
2022/07/27 04:31:46;;;;;;;4.40;3.10;;;;;;;16.28;63.38;101328.81;5059068;28;20181;-68
2022/07/27 04:34:12;;;;;;;8.37;3.17;;;;;;;15.97;63.96;101328.94;5058358;28;20242;-68
2022/07/27 04:36:38;;;;;;;5.63;3.53;;;;;;;16.07;64.06;101335.88;5044095;28;20268;-68
2022/07/27 04:39:03;;;;;;;6.37;3.23;;;;;;;15.95;63.71;101330.66;5057768;28;20185;-70
2022/07/27 04:41:28;;;;;;;10.90;3.73;;;;;;;16.08;63.22;101332.38;5055744;28;20418;-68
2022/07/27 04:43:54;;;;;;;5.40;3.03;;;;;;;16.17;62.96;101329.72;5058792;28;20177;-69
2022/07/27 04:46:19;;;;;;;5.90;2.93;;;;;;;16.11;62.74;101340.25;5039318;28;20579;-69
2022/07/27 04:48:45;;;;;;;7.60;3.30;;;;;;;16.21;62.62;101327.06;5038640;28;20189;-68
2022/07/27 04:51:13;;;;;;;5.37;3.47;;;;;;;16.25;62.60;101334.97;5052972;28;20181;-68
2022/07/27 04:53:39;;;;;;;4.33;3.03;;;;;;;16.16;63.12;101338.50;5038686;28;20587;-68
2022/07/27 04:56:05;;;;;;;6.63;3.23;;;;;;;16.22;62.92;101323.56;5038271;28;20416;-69
2022/07/27 04:58:30;;;;;;;6.63;2.93;;;;;;;16.08;63.22;101332.38;5041592;28;20194;-68
2022/07/27 05:00:55;;;;;;;6.63;3.40;;;;;;;16.21;62.23;101324.44;5054680;28;20507;-68
2022/07/27 05:03:20;;;;;;;6.60;3.00;;;;;;;16.48;62.13;101326.94;5055733;28;20196;-68
2022/07/27 05:05:46;;;;;;;4.53;3.07;;;;;;;16.56;62.25;101328.66;5043573;28;20563;-67
2022/07/27 05:08:11;;;;;;;11.03;3.60;;;;;;;16.47;61.94;101329.59;5038577;28;20228;-70
2022/07/27 05:10:36;;;;;;;5.10;3.53;;;;;;;16.60;61.25;101333.91;5055334;28;20196;-68
2022/07/27 05:13:02;;;;;;;7.83;3.20;;;;;;;16.43;62.47;101334.00;5058702;28;20177;-69
2022/07/27 05:15:27;;;;;;;7.33;3.43;;;;;;;16.57;61.28;101335.69;5057399;28;20419;-69
2022/07/27 05:17:53;;;;;;;9.33;4.77;;;;;;;17.24;60.10;101333.47;5058337;28;20238;-69
2022/07/27 05:20:18;;;;;;;7.27;3.60;;;;;;;17.63;59.07;101326.06;5055748;28;20197;-68
2022/07/27 05:22:43;;;;;;;5.50;4.00;;;;;;;19.22;54.99;101328.41;5056514;28;20282;-68
2022/07/27 05:25:09;;;;;;;3.40;3.10;;;;;;;20.15;51.69;101320.50;5044703;28;20193;-69
2022/07/27 05:27:36;;;;;;;6.83;3.20;;;;;;;21.07;48.58;101331.69;5037829;28;20198;-68
2022/07/27 05:30:03;;;;;;;5.23;2.80;;;;;;;21.47;47.26;101330.69;5038793;28;20251;-68
2022/07/27 05:32:28;;;;;;;4.20;2.87;;;;;;;20.65;48.98;101336.19;5041718;28;20428;-69
2022/07/27 05:34:54;;;;;;;6.17;3.10;;;;;;;20.19;50.54;101340.72;5038264;28;20504;-68
2022/07/27 05:37:19;;;;;;;6.27;2.90;;;;;;;18.87;54.21;101343.91;5044701;28;20194;-69
2022/07/27 05:39:45;;;;;;;5.00;3.23;;;;;;;18.33;55.79;101344.66;5043044;28;20283;-67
2022/07/27 05:42:10;;;;;;;7.90;3.63;;;;;;;18.26;56.47;101338.56;5039820;28;20205;-68
2022/07/27 05:44:36;;;;;;;10.77;3.13;;;;;;;17.16;59.11;101352.84;5057543;28;20498;-69
2022/07/27 05:47:01;;;;;;;7.83;3.50;;;;;;;17.21;59.60;101367.75;5057972;28;20449;-70
2022/07/27 05:49:28;;;;;;;5.47;3.20;;;;;;;17.16;60.17;101362.53;5058486;28;20166;-68
2022/07/27 05:51:53;;;;;;;6.97;3.40;;;;;;;17.14;59.51;101364.28;5057636;28;20261;-70
2022/07/27 05:54:19;;;;;;;6.60;3.00;;;;;;;17.08;59.98;101359.09;5057485;28;20566;-70
2022/07/27 05:56:44;;;;;;;5.50;3.00;;;;;;;17.18;60.41;101366.00;5058052;28;20208;-69
2022/07/27 05:59:10;;;;;;;7.20;3.07;;;;;;;17.81;58.55;101357.53;5052822;28;20597;-69
2022/07/27 06:01:36;;;;;;;8.90;3.63;;;;;;;17.42;58.76;101369.34;5051500;28;20201;-69
2022/07/27 06:04:02;;;;;;;6.53;3.37;;;;;;;17.82;58.50;101366.34;5056064;28;20276;-68
2022/07/27 06:09:11;;;;;;;5.87;3.30;;;;;;;17.93;57.88;101372.41;5050353;28;20653;-67
2022/07/27 06:11:37;;;;;;;6.00;3.70;;;;;;;17.46;59.34;101369.28;5072074;28;20402;-69
2022/07/27 06:14:02;;;;;;;10.27;3.80;;;;;;;18.01;57.83;101382.88;5064010;28;20267;-67
2022/07/27 06:16:29;;;;;;;8.63;3.10;;;;;;;17.57;58.54;101373.59;5058343;28;20582;-69
2022/07/27 06:18:54;;;;;;;4.97;2.87;;;;;;;17.91;58.68;101375.91;5070636;28;20202;-66
2022/07/27 06:21:22;;;;;;;6.63;3.10;;;;;;;17.82;57.84;101385.66;5071964;28;20501;-67
2022/07/27 06:23:48;;;;;;;3.67;3.23;;;;;;;18.04;57.35;101374.91;5050566;28;20180;-66
2022/07/27 06:26:13;;;;;;;8.90;3.40;;;;;;;18.41;56.92;101374.47;5060619;28;20419;-67
2022/07/27 06:28:39;;;;;;;7.13;3.67;;;;;;;18.32;56.45;101385.13;5044388;28;20540;-67
2022/07/27 06:31:04;;;;;;;6.43;3.97;;;;;;;18.01;56.94;101390.78;5053150;28;20265;-68
2022/07/27 06:33:30;;;;;;;7.10;3.03;;;;;;;18.24;56.37;101381.72;5050423;28;20706;-68
2022/07/27 06:35:59;;;;;;;4.13;3.00;;;;;;;18.33;55.56;101384.25;5058654;28;20192;-68
2022/07/27 06:38:25;;;;;;;7.53;3.50;;;;;;;18.29;55.63;101385.16;5049785;28;20303;-67
2022/07/27 06:40:51;;;;;;;4.93;3.47;;;;;;;18.17;54.95;101381.81;5062145;28;20448;-70
2022/07/27 06:43:21;;;;;;;5.37;3.40;;;;;;;18.06;55.28;101381.03;5071045;28;20437;-69
2022/07/27 06:45:47;;;;;;;5.27;3.30;;;;;;;18.25;55.15;101379.09;5062733;28;20177;-70
2022/07/27 06:48:12;;;;;;;6.30;2.87;;;;;;;18.33;54.97;101382.50;5061993;28;20846;-71
2022/07/27 06:50:38;;;;;;;4.10;2.90;;;;;;;18.06;55.37;101396.00;5068324;28;20208;-71
2022/07/27 06:53:03;;;;;;;5.57;3.10;;;;;;;18.12;55.33;101398.59;5066331;28;20251;-69
2022/07/27 06:55:28;;;;;;;5.73;2.80;;;;;;;17.88;55.90;101399.69;5070061;28;20208;-70
2022/07/27 06:57:54;;;;;;;4.43;3.07;;;;;;;18.09;55.75;101394.22;5079778;28;20287;-69
2022/07/27 07:00:19;;;;;;;8.63;3.17;;;;;;;17.66;56.69;101392.84;5079904;28;20209;-70
2022/07/27 07:02:59;;;;;;;8.87;3.33;;;;;;;17.75;56.40;101391.91;5079945;28;20438;-69
2022/07/27 07:05:25;;;;;;;7.90;2.70;;;;;;;17.83;56.41;101383.88;5068248;28;20276;-69
2022/07/27 07:07:51;;;;;;;9.60;3.13;;;;;;;17.92;56.49;101393.53;5060111;28;20412;-69
2022/07/27 07:10:17;;;;;;;7.90;3.23;;;;;;;18.47;55.46;101379.69;5060935;28;20475;-68
2022/07/27 07:12:42;;;;;;;8.33;3.17;;;;;;;18.41;55.36;101390.28;5060577;28;20463;-69
2022/07/27 07:15:08;;;;;;;4.00;2.80;;;;;;;18.67;54.33;101391.72;5060272;28;20176;-70
2022/07/27 07:17:34;;;;;;;5.80;3.10;;;;;;;18.79;54.23;101383.63;5060830;28;20178;-70
2022/07/27 07:19:59;;;;;;;6.67;3.20;;;;;;;19.17;53.54;101394.56;5059101;28;20259;-70
2022/07/27 07:22:25;;;;;;;4.17;2.67;;;;;;;20.18;51.10;101393.69;5060529;28;20182;-70
2022/07/27 07:24:51;;;;;;;8.07;3.03;;;;;;;21.75;47.48;101388.38;5060516;28;20192;-68
2022/07/27 07:27:19;;;;;;;5.43;2.70;;;;;;;23.98;42.21;101385.91;5059681;28;20234;-69
2022/07/27 07:29:44;;;;;;;4.63;2.43;;;;;;;25.32;38.92;101379.84;5060124;28;20260;-69
2022/07/27 07:32:10;;;;;;;3.83;2.60;;;;;;;25.55;38.37;101381.53;5060706;28;20510;-69
2022/07/27 07:34:35;;;;;;;6.13;2.90;;;;;;;25.79;37.46;101380.53;5053258;28;20186;-67
2022/07/27 07:37:01;;;;;;;4.93;2.70;;;;;;;25.19;37.96;101375.94;5039955;28;20170;-67
2022/07/27 07:39:26;;;;;;;6.27;3.07;;;;;;;25.50;37.52;101378.19;5040344;28;20190;-70
2022/07/27 07:41:52;;;;;;;7.60;2.87;;;;;;;25.87;37.37;101381.06;5039935;28;20170;-69
2022/07/27 07:44:18;;;;;;;7.33;3.13;;;;;;;25.04;38.25;101383.63;5055234;28;20238;-69
2022/07/27 07:46:43;;;;;;;12.50;3.40;;;;;;;26.27;36.01;101378.44;5059588;28;20284;-70
2022/07/27 07:49:09;;;;;;;28.30;6.70;;;;;;;26.67;36.12;101372.06;5059640;28;20231;-69
2022/07/27 07:51:34;;;;;;;12.90;3.37;;;;;;;27.00;35.30;101379.41;5059521;28;20177;-70
2022/07/27 07:54:00;;;;;;;14.97;3.63;;;;;;;26.56;35.43;101375.25;5059400;28;20662;-70
2022/07/27 07:56:25;;;;;;;25.40;5.27;;;;;;;27.71;33.93;101369.63;5059560;28;20178;-69
2022/07/27 07:58:50;;;;;;;18.77;4.00;;;;;;;26.72;34.89;101382.56;5059581;28;20254;-69
2022/07/27 08:01:16;;;;;;;5.13;2.80;;;;;;;26.17;35.39;101384.22;5059475;28;20537;-69
2022/07/27 08:03:41;;;;;;;13.37;3.30;;;;;;;26.65;34.79;101378.44;5059183;28;20524;-69
2022/07/27 08:06:07;;;;;;;5.03;3.07;;;;;;;25.01;37.15;101393.56;5059026;28;20252;-69
2022/07/27 08:08:32;;;;;;;6.17;2.90;;;;;;;25.30;36.38;101376.38;5058814;28;20181;-70
2022/07/27 08:10:57;;;;;;;3.60;2.70;;;;;;;23.26;39.84;101381.28;5059240;28;20173;-70
2022/07/27 08:13:23;;;;;;;4.47;2.97;;;;;;;22.18;42.28;101398.66;5059400;28;20192;-69
2022/07/27 08:15:50;;;;;;;4.93;3.30;;;;;;;22.27;42.54;101391.34;5058745;28;20179;-68
2022/07/27 08:18:15;;;;;;;4.33;2.97;;;;;;;21.59;43.48;101402.03;5059036;28;20184;-69
2022/07/27 08:20:40;;;;;;;8.30;3.00;;;;;;;21.32;44.19;101403.56;5058850;28;20512;-71
2022/07/27 08:23:06;;;;;;;7.77;3.10;;;;;;;21.76;43.08;101403.34;5058794;28;20241;-67
2022/07/27 08:25:32;;;;;;;6.67;3.60;;;;;;;20.44;46.00;101410.81;5058762;28;20252;-68
2022/07/27 08:27:58;;;;;;;4.60;3.00;;;;;;;20.63;45.37;101413.94;5059087;28;20264;-67
2022/07/27 08:30:23;;;;;;;5.27;3.20;;;;;;;21.07;44.18;101420.06;5058628;28;20798;-67
2022/07/27 08:32:54;;;;;;;4.83;2.90;;;;;;;21.50;42.73;101412.84;5058030;28;20226;-72
2022/07/27 08:35:20;;;;;;;10.43;3.30;;;;;;;22.01;42.47;101416.84;5059021;28;20219;-67
2022/07/27 08:37:46;;;;;;;5.50;3.10;;;;;;;21.59;43.05;101420.59;5058665;28;20420;-68
2022/07/27 08:40:12;;;;;;;6.13;2.97;;;;;;;23.97;38.57;101417.91;5058449;28;20483;-67
2022/07/27 08:42:39;;;;;;;4.53;2.60;;;;;;;26.14;34.88;101410.19;5058776;28;20195;-67
2022/07/27 08:45:05;;;;;;;5.37;2.90;;;;;;;25.97;35.13;101410.94;5058398;28;20434;-68
2022/07/27 08:47:31;;;;;;;6.43;2.77;;;;;;;23.71;38.52;101417.00;5057733;28;20424;-68
2022/07/27 08:49:57;;;;;;;9.37;3.77;;;;;;;22.97;39.93;101416.75;5058808;28;20415;-67
2022/07/27 08:52:22;;;;;;;4.47;2.60;;;;;;;23.53;38.95;101426.50;5058533;28;20476;-68
2022/07/27 08:54:48;;;;;;;4.00;2.83;;;;;;;23.68;37.79;101419.78;5058062;28;20264;-70
2022/07/27 08:57:14;;;;;;;9.57;5.00;;;;;;;24.76;35.06;101407.00;5057943;28;20173;-68
2022/07/27 08:59:39;;;;;;;5.60;3.93;;;;;;;24.99;34.25;101420.31;5058246;28;20224;-69
2022/07/27 09:02:09;;;;;;;12.23;3.40;;;;;;;26.06;32.54;101423.91;5058371;28;20177;-69
2022/07/27 09:04:35;;;;;;;4.80;2.93;;;;;;;26.22;31.73;101414.28;5058407;28;20276;-69
2022/07/27 09:07:00;;;;;;;3.77;2.50;;;;;;;26.13;31.07;101414.69;5058223;28;20426;-67
2022/07/27 09:09:25;;;;;;;4.77;2.90;;;;;;;25.97;31.69;101413.59;5058252;28;20166;-67
2022/07/27 09:12:08;;;;;;;5.17;3.00;;;;;;;24.31;34.59;101420.22;5058354;28;20223;-68
2022/07/27 09:14:36;;;;;;;7.27;3.20;;;;;;;23.76;35.06;101425.72;5058055;28;20170;-67
2022/07/27 09:17:26;;;;;;;5.80;2.97;;;;;;;23.57;36.00;101429.91;5058848;28;20518;-68
2022/07/27 09:20:00;;;;;;;6.30;2.90;;;;;;;23.54;35.64;101431.78;5057892;28;20506;-67
2022/07/27 09:22:45;;;;;;;4.93;2.90;;;;;;;24.48;34.68;101418.72;5058064;28;20505;-68
2022/07/27 09:25:13;;;;;;;5.30;3.00;;;;;;;27.26;30.89;101417.41;5057780;28;20692;-70
2022/07/27 09:27:39;;;;;;;5.70;3.27;;;;;;;28.63;29.29;101413.88;5058060;28;20506;-70
2022/07/27 09:30:10;;;;;;;5.00;2.80;;;;;;;26.65;30.45;101416.72;5057884;28;20459;-71
2022/07/27 09:32:36;;;;;;;6.30;2.77;;;;;;;29.34;27.76;101408.06;5057529;28;20811;-71
2022/07/27 09:35:16;;;;;;;5.03;3.30;;;;;;;25.13;32.41;101422.44;5057872;28;20415;-69
2022/07/27 09:37:41;;;;;;;4.87;2.47;;;;;;;25.05;32.66;101420.06;5057760;28;20197;-69
2022/07/27 09:40:18;;;;;;;6.37;2.60;;;;;;;25.41;32.96;101434.69;5057549;28;20495;-69
2022/07/27 09:42:44;;;;;;;3.63;3.10;;;;;;;25.06;33.24;101426.28;5057410;28;20173;-70
2022/07/27 09:45:33;;;;;;;5.13;2.97;;;;;;;24.28;32.81;101423.00;5057358;28;20422;-70
2022/07/27 09:48:16;;;;;;;4.63;2.63;;;;;;;22.95;34.22;101432.75;5058044;28;20268;-71
2022/07/27 09:50:44;;;;;;;3.00;2.60;;;;;;;22.80;35.26;101418.16;5057565;28;20490;-69
2022/07/27 09:53:19;;;;;;;4.73;2.87;;;;;;;23.09;34.42;101427.00;5057566;28;20471;-69
2022/07/27 09:55:55;;;;;;;9.30;3.37;;;;;;;24.05;35.49;101426.50;5056709;28;20407;-70
2022/07/27 09:58:20;;;;;;;8.90;3.10;;;;;;;23.25;35.45;101423.88;5057537;28;20688;-69
2022/07/27 10:00:56;;;;;;;5.20;3.10;;;;;;;23.20;35.02;101432.00;5057539;28;20426;-70
2022/07/27 10:03:22;;;;;;;8.27;3.10;;;;;;;22.74;36.45;101423.63;5057520;28;20169;-70
2022/07/27 10:05:47;;;;;;;6.53;3.10;;;;;;;22.28;37.22;101419.66;5057080;28;20833;-70
2022/07/27 10:08:12;;;;;;;7.70;3.00;;;;;;;22.11;37.63;101434.28;5057458;28;20184;-69
2022/07/27 10:10:38;;;;;;;5.87;3.00;;;;;;;22.47;37.89;101420.88;5056745;28;20527;-69
2022/07/27 10:13:04;;;;;;;7.30;2.97;;;;;;;22.39;38.56;101428.22;5057775;28;20442;-70
2022/07/27 10:15:29;;;;;;;5.17;2.53;;;;;;;22.51;38.81;101427.84;5057295;28;20189;-71
2022/07/27 10:18:00;;;;;;;4.50;3.10;;;;;;;22.73;38.34;101431.66;5056786;28;20234;-69
2022/07/27 10:20:26;;;;;;;5.50;2.70;;;;;;;22.01;40.02;101432.78;5056796;28;20189;-69
2022/07/27 10:22:52;;;;;;;3.90;2.60;;;;;;;22.13;40.03;101443.06;5056562;28;20809;-69
2022/07/27 10:25:18;;;;;;;5.00;3.07;;;;;;;21.31;41.37;101453.09;5057284;28;20182;-71
2022/07/27 10:28:06;;;;;;;4.07;2.87;;;;;;;22.50;39.88;101444.72;5057872;28;20408;-70
2022/07/27 10:30:31;;;;;;;5.53;3.00;;;;;;;22.37;38.93;101446.84;5056462;28;20420;-69
2022/07/27 10:32:57;;;;;;;5.07;2.97;;;;;;;23.66;37.44;101442.91;5057116;28;20416;-70
2022/07/27 10:35:33;;;;;;;6.20;3.03;;;;;;;24.66;35.24;101446.50;5056997;28;20180;-69
2022/07/27 10:38:09;;;;;;;5.60;2.90;;;;;;;23.32;37.09;101450.22;5057230;28;20173;-69
2022/07/27 10:40:35;;;;;;;4.70;2.87;;;;;;;23.18;37.78;101441.84;5057077;28;20451;-69
2022/07/27 10:43:18;;;;;;;7.50;3.00;;;;;;;21.84;39.44;101447.38;5057279;28;20419;-69
2022/07/27 10:45:46;;;;;;;4.70;2.83;;;;;;;21.96;39.14;101451.50;5056986;28;20174;-71
2022/07/27 10:48:37;;;;;;;5.43;3.20;;;;;;;21.57;39.49;101450.72;5056348;28;20419;-68
2022/07/27 10:51:05;;;;;;;5.57;2.80;;;;;;;21.80;38.09;101450.16;5057387;28;20412;-69
2022/07/27 10:53:33;;;;;;;5.40;2.90;;;;;;;22.74;37.57;101449.38;5056994;28;20474;-69
2022/07/27 10:55:58;;;;;;;4.93;2.60;;;;;;;24.48;33.37;101438.25;5060052;28;20455;-69
2022/07/27 10:58:27;;;;;;;3.90;2.50;;;;;;;24.88;32.39;101433.19;5060801;28;20840;-69
2022/07/27 11:00:52;;;;;;;6.07;2.47;;;;;;;26.01;30.63;101425.88;5061031;28;20220;-70
2022/07/27 11:03:22;;;;;;;4.37;2.67;;;;;;;24.91;30.65;101432.22;5060800;28;20415;-69
2022/07/27 11:06:11;;;;;;;5.07;2.43;;;;;;;26.83;27.70;101415.03;5060420;28;20284;-69
2022/07/27 11:08:41;;;;;;;7.70;2.40;;;;;;;26.27;28.99;101416.72;5060512;28;20473;-69
2022/07/27 11:11:08;;;;;;;6.43;3.10;;;;;;;24.29;31.89;101438.06;5060371;28;20439;-69
2022/07/27 11:13:34;;;;;;;4.77;2.90;;;;;;;23.51;33.17;101447.81;5060478;28;20424;-69
2022/07/27 11:15:59;;;;;;;6.17;2.80;;;;;;;23.24;33.08;101449.59;5060693;28;20432;-70
2022/07/27 11:18:29;;;;;;;6.37;2.87;;;;;;;24.80;31.20;101436.19;5060566;28;20462;-69
2022/07/27 11:21:20;;;;;;;4.03;2.80;;;;;;;25.03;30.62;101437.94;5060222;28;20178;-70
2022/07/27 11:23:57;;;;;;;5.50;2.70;;;;;;;23.92;32.81;101433.19;5060135;28;20396;-69
2022/07/27 11:26:24;;;;;;;3.90;2.83;;;;;;;23.55;34.77;101446.78;5060289;28;20709;-70
2022/07/27 11:28:50;;;;;;;6.10;2.93;;;;;;;22.56;39.03;101453.44;5060243;28;20658;-69